Time;durP1;ratioP1;P1;durP2;ratioP2;P2;SDS_P1;SDS_P2;PMS_P1;PMS_P2;Temp;Humidity;BMP_temperature;BMP_pressure;BME280_temperature;BME280_humidity;BME280_pressure;Samples;Min_cycle;Max_cycle;Signal;HPM_P1;HPM_P2
2024/03/04 00:00:30;;;;;;;;;;;;;;;3.70;100.00;100092.59;6184453;23;19928;-77
2024/03/04 00:02:58;;;;;;;;;;;;;;;3.69;100.00;100091.75;6184871;23;20347;-76
2024/03/04 00:05:23;;;;;;;;;;;;;;;3.70;100.00;100104.06;6184738;23;19912;-77
2024/03/04 00:07:49;;;;;;;;;;;;;;;3.73;100.00;100106.38;6184285;23;19924;-77
2024/03/04 00:10:14;;;;;;;;;;;;;;;3.69;100.00;100113.06;6184502;23;20000;-77
2024/03/04 00:12:40;;;;;;;;;;;;;;;3.73;100.00;100109.03;6183130;23;20241;-77
2024/03/04 00:15:08;;;;;;;;;;;;;;;3.73;100.00;100113.53;6186445;23;19991;-76
2024/03/04 00:17:35;;;;;;;;;;;;;;;3.68;100.00;100115.88;6190381;23;19920;-76
2024/03/04 00:20:00;;;;;;;;;;;;;;;3.65;100.00;100122.38;6192234;23;20337;-77
2024/03/04 00:22:25;;;;;;;;;;;;;;;3.64;100.00;100128.69;6186266;23;19912;-77
2024/03/04 00:24:51;;;;;;;;;;;;;;;3.60;100.00;100130.03;6185659;23;19959;-77
2024/03/04 00:27:16;;;;;;;;;;;;;;;3.53;100.00;100129.06;6182611;23;19922;-74
2024/03/04 00:29:41;;;;;;;;;;;;;;;3.51;100.00;100131.06;6185077;23;19967;-74
2024/03/04 00:32:06;;;;;;;;;;;;;;;3.53;100.00;100129.06;6183497;23;19944;-74
2024/03/04 00:34:32;;;;;;;;;;;;;;;3.54;100.00;100141.34;6182541;23;19916;-74
2024/03/04 00:36:57;;;;;;;;;;;;;;;3.59;100.00;100153.16;6184916;23;19980;-74
2024/03/04 00:39:25;;;;;;;;;;;;;;;3.57;100.00;100155.16;6183789;23;20318;-74
2024/03/04 00:41:50;;;;;;;;;;;;;;;3.59;100.00;100163.81;6188763;23;19916;-73
2024/03/04 00:44:16;;;;;;;;;;;;;;;3.51;100.00;100163.00;6194056;23;19955;-73
2024/03/04 00:46:44;;;;;;;;;;;;;;;3.41;100.00;100169.31;6183725;23;19916;-74
2024/03/04 00:49:09;;;;;;;;;;;;;;;3.35;100.00;100170.00;6184229;23;19916;-74
2024/03/04 00:51:36;;;;;;;;;;;;;;;3.29;100.00;100168.81;6185073;23;19912;-74
2024/03/04 00:54:03;;;;;;;;;;;;;;;3.33;100.00;100170.13;6183656;23;20245;-74
2024/03/04 00:56:28;;;;;;;;;;;;;;;3.37;100.00;100177.78;6156874;23;19920;-74
2024/03/04 00:58:54;;;;;;;;;;;;;;;3.54;100.00;100175.94;6184216;23;19919;-74
2024/03/04 01:01:19;;;;;;;;;;;;;;;3.55;100.00;100180.25;6183601;23;19916;-74
2024/03/04 01:03:44;;;;;;;;;;;;;;;3.58;100.00;100178.13;6181727;23;19912;-74
2024/03/04 01:06:10;;;;;;;;;;;;;;;3.76;100.00;100191.22;6185362;23;19923;-74
2024/03/04 01:08:35;;;;;;;;;;;;;;;3.81;100.00;100187.22;6185987;23;19958;-74
2024/03/04 01:11:00;;;;;;;;;;;;;;;3.76;100.00;100193.88;6190955;23;19924;-74
2024/03/04 01:13:25;;;;;;;;;;;;;;;3.73;100.00;100194.22;6190461;23;19970;-74
2024/03/04 01:15:50;;;;;;;;;;;;;;;3.75;100.00;100191.41;6184013;23;19916;-74
2024/03/04 01:18:16;;;;;;;;;;;;;;;3.79;100.00;100195.41;6185040;23;19958;-74
2024/03/04 01:20:43;;;;;;;;;;;;;;;3.92;100.00;100201.03;6185233;23;20276;-74
2024/03/04 01:23:09;;;;;;;;;;;;;;;3.97;100.00;100200.50;6183825;23;20423;-74
2024/03/04 01:25:34;;;;;;;;;;;;;;;4.05;100.00;100207.66;6183664;23;19912;-74
2024/03/04 01:28:00;;;;;;;;;;;;;;;4.21;100.00;100206.78;6185265;23;19916;-75
2024/03/04 01:30:26;;;;;;;;;;;;;;;4.29;100.00;100200.59;6183921;23;20102;-74
2024/03/04 01:32:52;;;;;;;;;;;;;;;4.38;100.00;100210.22;6185393;23;19912;-74
2024/03/04 01:35:17;;;;;;;;;;;;;;;4.48;100.00;100223.34;6185475;23;19912;-74
2024/03/04 01:37:42;;;;;;;;;;;;;;;4.62;100.00;100224.47;6185255;23;19943;-74
2024/03/04 01:40:08;;;;;;;;;;;;;;;4.75;100.00;100223.91;6191925;23;19920;-73
2024/03/04 01:42:33;;;;;;;;;;;;;;;4.85;100.00;100221.84;6188468;23;19977;-74
2024/03/04 01:44:58;;;;;;;;;;;;;;;4.91;100.00;100226.50;6184606;23;19916;-74
2024/03/04 01:47:23;;;;;;;;;;;;;;;4.97;100.00;100233.75;6184834;23;19912;-74
2024/03/04 01:49:49;;;;;;;;;;;;;;;5.07;100.00;100236.22;6158628;23;19912;-74
2024/03/04 01:52:14;;;;;;;;;;;;;;;5.13;100.00;100242.69;6186000;23;19913;-74
2024/03/04 01:54:40;;;;;;;;;;;;;;;5.17;100.00;100249.31;6184060;23;20281;-74
2024/03/04 01:57:06;;;;;;;;;;;;;;;5.24;100.00;100247.63;6157120;23;19908;-75
2024/03/04 01:59:31;;;;;;;;;;;;;;;5.25;100.00;100257.28;6182604;23;20222;-74
2024/03/04 02:01:56;;;;;;;;;;;;;;;5.27;100.00;100260.63;6182160;23;19912;-74
2024/03/04 02:04:22;;;;;;;;;;;;;;;5.32;100.00;100257.41;6156239;23;19912;-74
2024/03/04 02:06:47;;;;;;;;;;;;;;;5.35;100.00;100266.91;6156638;23;19912;-74
2024/03/04 02:09:13;;;;;;;;;;;;;;;5.39;100.00;100262.88;6156762;23;19943;-74
2024/03/04 02:11:38;;;;;;;;;;;;;;;5.43;100.00;100264.19;6182348;23;19920;-74
2024/03/04 02:14:04;;;;;;;;;;;;;;;5.44;100.00;100277.34;6156834;23;20254;-74
2024/03/04 02:16:29;;;;;;;;;;;;;;;5.46;100.00;100275.31;6182932;23;19920;-74
2024/03/04 02:19:00;;;;;;;;;;;;;;;5.52;100.00;100283.66;6182935;23;20327;-74
2024/03/04 02:21:26;;;;;;;;;;;;;;;5.50;100.00;100275.78;6182667;23;20218;-74
2024/03/04 02:23:51;;;;;;;;;;;;;;;5.51;100.00;100287.31;6157023;23;19916;-74
2024/03/04 02:26:17;;;;;;;;;;;;;;;5.54;100.00;100287.78;6181131;23;19925;-74
2024/03/04 02:28:42;;;;;;;;;;;;;;;5.52;100.00;100294.31;6184287;23;19912;-74
2024/03/04 02:31:10;;;;;;;;;;;;;;;5.52;100.00;100289.81;6182822;23;19916;-74
2024/03/04 02:33:35;;;;;;;;;;;;;;;5.57;100.00;100303.47;6156018;23;19942;-74
2024/03/04 02:36:00;;;;;;;;;;;;;;;5.57;100.00;100299.94;6158227;23;20286;-74
2024/03/04 02:38:26;;;;;;;;;;;;;;;5.55;100.00;100302.81;6183365;23;19930;-74
2024/03/04 02:40:51;;;;;;;;;;;;;;;5.54;100.00;100303.81;6155610;23;19924;-74
2024/03/04 02:43:18;;;;;;;;;;;;;;;5.54;100.00;100303.81;6183917;23;20015;-74
2024/03/04 02:45:43;;;;;;;;;;;;;;;5.52;100.00;100303.16;6182095;23;19943;-74
2024/03/04 02:48:08;;;;;;;;;;;;;;;5.59;100.00;100304.13;6183864;23;19920;-74
2024/03/04 02:50:33;;;;;;;;;;;;;;;5.57;100.00;100315.97;6185725;23;19966;-75
2024/03/04 02:52:59;;;;;;;;;;;;;;;5.57;100.00;100303.47;6184988;23;19983;-74
2024/03/04 02:55:24;;;;;;;;;;;;;;;5.58;100.00;100310.47;6183875;23;20317;-74
2024/03/04 02:57:51;;;;;;;;;;;;;;;5.54;100.00;100314.50;6186024;23;19914;-73
2024/03/04 03:00:16;;;;;;;;;;;;;;;5.56;100.00;100317.00;6185434;23;19919;-74
2024/03/04 03:02:41;;;;;;;;;;;;;;;5.56;100.00;100317.81;6183329;23;19912;-75
2024/03/04 03:05:06;;;;;;;;;;;;;;;5.62;100.00;100318.94;6185669;23;19958;-74
2024/03/04 03:07:32;;;;;;;;;;;;;;;5.63;100.00;100319.78;6185174;23;19963;-74
2024/03/04 03:09:57;;;;;;;;;;;;;;;5.60;100.00;100321.81;6183812;23;19931;-73
2024/03/04 03:12:22;;;;;;;;;;;;;;;5.60;100.00;100329.81;6184552;23;19927;-74
2024/03/04 03:14:47;;;;;;;;;;;;;;;5.57;100.00;100330.16;6185142;23;19919;-77
2024/03/04 03:17:13;;;;;;;;;;;;;;;5.62;100.00;100329.63;6183612;23;19947;-77
2024/03/04 03:19:38;;;;;;;;;;;;;;;5.60;100.00;100337.81;6185026;23;19912;-77
2024/03/04 03:22:07;;;;;;;;;;;;;;;5.60;100.00;100335.16;6185726;23;19916;-77
2024/03/04 03:24:32;;;;;;;;;;;;;;;5.61;100.00;100336.81;6183686;23;19917;-77
2024/03/04 03:26:57;;;;;;;;;;;;;;;5.64;100.00;100334.81;6185835;23;19950;-78
2024/03/04 03:29:22;;;;;;;;;;;;;;;5.63;100.00;100333.97;6185585;23;19913;-78
2024/03/04 03:31:49;;;;;;;;;;;;;;;5.61;100.00;100336.81;6183904;23;19912;-78
2024/03/04 03:34:14;;;;;;;;;;;;;;;5.61;100.00;100339.47;6184915;23;19940;-77
2024/03/04 03:36:42;;;;;;;;;;;;;;;5.59;100.00;100349.50;6185282;23;19947;-77
2024/03/04 03:39:12;;;;;;;;;;;;;;;5.60;100.00;100351.16;6184867;23;19922;-77
2024/03/04 03:41:37;;;;;;;;;;;;;;;5.60;100.00;100356.50;6184921;23;19962;-78
2024/03/04 03:44:02;;;;;;;;;;;;;;;5.61;100.00;100354.66;6184954;23;19916;-78
2024/03/04 03:46:27;;;;;;;;;;;;;;;5.64;100.00;100362.31;6184700;23;19923;-78
2024/03/04 03:48:53;;;;;;;;;;;;;;;5.60;100.00;100359.19;6186002;23;19912;-78
2024/03/04 03:51:18;;;;;;;;;;;;;;;5.61;100.00;100362.66;6185248;23;19918;-78
2024/03/04 03:53:43;;;;;;;;;;;;;;;5.64;100.00;100377.53;6185531;23;19917;-77
2024/03/04 03:56:09;;;;;;;;;;;;;;;5.60;100.00;100377.88;6186270;23;20430;-77
2024/03/04 03:58:40;;;;;;;;;;;;;;;5.64;100.00;100378.34;6193800;23;19912;-77
2024/03/04 04:01:05;;;;;;;;;;;;;;;5.64;100.00;100389.03;6195334;23;20318;-77
2024/03/04 04:03:33;;;;;;;;;;;;;;;5.62;100.00;100391.03;6188942;23;19912;-78
2024/03/04 04:05:58;;;;;;;;;;;;;;;5.64;100.00;100398.91;6188430;23;19912;-78
2024/03/04 04:08:24;;;;;;;;;;;;;;;5.63;100.00;100392.69;6184891;23;19912;-77
2024/03/04 04:10:49;;;;;;;;;;;;;;;5.58;100.00;100387.91;6185180;23;20360;-78
2024/03/04 04:13:14;;;;;;;;;;;;;;;5.64;100.00;100394.38;6184968;23;19923;-78
2024/03/04 04:15:39;;;;;;;;;;;;;;;5.61;100.00;100395.56;6184597;23;19920;-78
2024/03/04 04:18:08;;;;;;;;;;;;;;;5.60;100.00;100404.56;6185193;23;19919;-77
2024/03/04 04:20:33;;;;;;;;;;;;;;;5.66;100.00;100412.88;6185134;23;19912;-77
2024/03/04 04:23:04;;;;;;;;;;;;;;;5.65;100.00;100411.25;6184769;23;20271;-77
2024/03/04 04:25:29;;;;;;;;;;;;;;;5.65;100.00;100416.56;6190623;23;19916;-77
2024/03/04 04:27:55;;;;;;;;;;;;;;;5.63;100.00;100411.41;6198057;23;20318;-77
2024/03/04 04:30:20;;;;;;;;;;;;;;;5.64;100.00;100420.25;6189105;23;20329;-77
2024/03/04 04:32:46;;;;;;;;;;;;;;;5.60;100.00;100422.41;6187698;23;20000;-77
2024/03/04 04:35:11;;;;;;;;;;;;;;;5.60;100.00;100419.75;6187030;23;19916;-78
2024/03/04 04:37:46;;;;;;;;;;;;;;;5.59;100.00;100421.59;6184795;23;19920;-77
2024/03/04 04:40:16;;;;;;;;;;;;;;;5.60;100.00;100425.94;6184467;23;20043;-77
2024/03/04 04:42:41;;;;;;;;;;;;;;;5.65;100.00;100427.25;6185359;23;20317;-78
2024/03/04 04:45:09;;;;;;;;;;;;;;;5.60;100.00;100435.78;6184709;23;19920;-77
2024/03/04 04:47:34;;;;;;;;;;;;;;;5.67;100.00;100433.22;6184045;23;20249;-77
2024/03/04 04:50:01;;;;;;;;;;;;;;;5.62;100.00;100441.78;6192967;23;19916;-78
2024/03/04 04:52:26;;;;;;;;;;;;;;;5.59;100.00;100450.13;6194901;23;19912;-77
2024/03/04 04:54:51;;;;;;;;;;;;;;;5.59;100.00;100450.97;6196419;23;19928;-78
2024/03/04 04:57:19;;;;;;;;;;;;;;;5.59;100.00;100459.00;6192230;23;19913;-77
2024/03/04 04:59:45;;;;;;;;;;;;;;;5.58;100.00;100459.16;6186872;23;19935;-77
2024/03/04 05:02:16;;;;;;;;;;;;;;;5.55;100.00;100463.00;6183156;23;19986;-83
2024/03/04 05:04:44;;;;;;;;;;;;;;;5.58;100.00;100465.34;6187692;23;19927;-77
2024/03/04 05:07:09;;;;;;;;;;;;;;;5.57;100.00;100465.47;6188035;23;19916;-78
2024/03/04 05:09:34;;;;;;;;;;;;;;;5.53;100.00;100473.03;6184603;23;20241;-78
2024/03/04 05:11:59;;;;;;;;;;;;;;;5.52;100.00;100474.03;6187626;23;19916;-78
2024/03/04 05:14:25;;;;;;;;;;;;;;;5.48;100.00;100488.72;6188699;23;20002;-78
2024/03/04 05:16:50;;;;;;;;;;;;;;;5.48;100.00;100486.03;6188825;23;19916;-77
2024/03/04 05:19:15;;;;;;;;;;;;;;;5.48;100.00;100488.72;6190056;23;19918;-77
2024/03/04 05:21:40;;;;;;;;;;;;;;;5.51;100.00;100492.91;6197282;23;19940;-77
2024/03/04 05:24:06;;;;;;;;;;;;;;;5.48;100.00;100496.72;6199716;23;19916;-77
2024/03/04 05:26:32;;;;;;;;;;;;;;;5.47;100.00;100495.09;6187309;23;19916;-77
2024/03/04 05:28:57;;;;;;;;;;;;;;;5.45;100.00;100497.09;6187031;23;19944;-77
2024/03/04 05:31:22;;;;;;;;;;;;;;;5.42;100.00;100505.44;6185502;23;19912;-77
2024/03/04 05:33:48;;;;;;;;;;;;;;;5.41;100.00;100501.09;6186022;23;19913;-77
2024/03/04 05:36:13;;;;;;;;;;;;;;;5.40;100.00;100505.59;6186149;23;20011;-77
2024/03/04 05:38:38;;;;;;;;;;;;;;;5.41;100.00;100501.91;6184259;23;19912;-77
2024/03/04 05:41:04;;;;;;;;;;;;;;;5.50;100.00;100502.72;6183886;23;19919;-78
2024/03/04 05:43:30;;;;;;;;;;;;;;;5.45;100.00;100515.78;6183636;23;19923;-78
2024/03/04 05:45:55;;;;;;;;;;;;;;;5.44;100.00;100500.78;6183544;23;20209;-78
2024/03/04 05:48:20;;;;;;;;;;;;;;;5.46;100.00;100509.44;6184238;23;19944;-77
2024/03/04 05:50:46;;;;;;;;;;;;;;;5.49;100.00;100509.06;6183770;23;19912;-77
2024/03/04 05:53:12;;;;;;;;;;;;;;;5.45;100.00;100515.78;6184054;23;19916;-77
2024/03/04 05:55:37;;;;;;;;;;;;;;;5.44;100.00;100520.28;6184214;23;19920;-77
2024/03/04 05:58:02;;;;;;;;;;;;;;;5.45;100.00;100521.13;6184408;23;19908;-77
2024/03/04 06:00:30;;;;;;;;;;;;;;;5.39;100.00;100521.78;6183839;23;19912;-77
2024/03/04 06:02:56;;;;;;;;;;;;;;;5.41;100.00;100522.47;6184141;23;19932;-77
2024/03/04 06:05:21;;;;;;;;;;;;;;;5.38;100.00;100529.00;6184189;23;20000;-77
2024/03/04 06:07:49;;;;;;;;;;;;;;;5.38;100.00;100536.16;6183902;23;19912;-77
2024/03/04 06:10:15;;;;;;;;;;;;;;;5.42;100.00;100532.13;6183915;23;19912;-77
2024/03/04 06:12:41;;;;;;;;;;;;;;;5.40;100.00;100526.94;6184260;23;20058;-77
2024/03/04 06:15:06;;;;;;;;;;;;;;;5.39;100.00;100535.97;6184111;23;20064;-77
2024/03/04 06:17:34;;;;;;;;;;;;;;;5.39;100.00;100541.31;6182496;23;19913;-77
2024/03/04 06:20:00;;;;;;;;;;;;;;;5.36;100.00;100540.81;6184794;23;19947;-77
2024/03/04 06:22:25;;;;;;;;;;;;;;;5.36;100.00;100544.34;6159514;23;20236;-77
2024/03/04 06:24:51;;;;;;;;;;;;;;;5.37;100.00;100550.50;6159078;23;20263;-77
2024/03/04 06:27:16;;;;;;;;;;;;;;;5.38;100.00;100549.50;6185722;23;19912;-77
2024/03/04 06:29:41;;;;;;;;;;;;;;;5.35;100.00;100549.81;6185308;23;19920;-76
2024/03/04 06:32:07;;;;;;;;;;;;;;;5.36;100.00;100557.69;6186147;23;19916;-77
2024/03/04 06:34:33;;;;;;;;;;;;;;;5.36;100.00;100559.50;6184893;23;19913;-77
2024/03/04 06:36:58;;;;;;;;;;;;;;;5.39;100.00;100572.50;6186272;23;20261;-77
2024/03/04 06:39:23;;;;;;;;;;;;;;;5.37;100.00;100575.38;6185080;23;19916;-77
2024/03/04 06:41:50;;;;;;;;;;;;;;;5.39;100.00;100577.84;6186816;23;19971;-78
2024/03/04 06:44:15;;;;;;;;;;;;;;;5.39;100.00;100572.50;6186387;23;20012;-78
2024/03/04 06:46:40;;;;;;;;;;;;;;;5.40;100.00;100576.84;6185792;23;19920;-78
2024/03/04 06:49:12;;;;;;;;;;;;;;;5.41;100.00;100573.19;6183313;23;19926;-78
2024/03/04 06:51:55;;;;;;;;;;;;;;;5.38;100.00;100576.19;6186098;23;19912;-78
2024/03/04 06:54:24;;;;;;;;;;;;;;;5.39;100.00;100580.53;6158108;23;19912;-78
2024/03/04 06:56:51;;;;;;;;;;;;;;;5.38;100.00;100576.19;6186217;23;20302;-79
2024/03/04 06:59:16;;;;;;;;;;;;;;;5.39;100.00;100585.88;6184721;23;19920;-78
2024/03/04 07:01:41;;;;;;;;;;;;;;;5.37;100.00;100591.38;6179871;23;19916;-78
2024/03/04 07:04:16;;;;;;;;;;;;;;;5.37;100.00;100588.72;6183880;23;19928;-78
2024/03/04 07:06:41;;;;;;;;;;;;;;;5.40;100.00;100587.53;6185572;23;19916;-78
2024/03/04 07:09:09;;;;;;;;;;;;;;;5.40;100.00;100587.53;6184788;23;19916;-78
2024/03/04 07:11:37;;;;;;;;;;;;;;;5.40;100.00;100582.19;6184609;23;20019;-78
2024/03/04 07:14:12;;;;;;;;;;;;;;;5.39;100.00;100588.53;6185114;23;19966;-78
2024/03/04 07:16:46;;;;;;;;;;;;;;;5.38;100.00;100587.72;6180383;23;19924;-78
2024/03/04 07:19:11;;;;;;;;;;;;;;;5.44;100.00;100580.84;6184465;23;20285;-78
2024/03/04 07:21:47;;;;;;;;;;;;;;;5.51;100.00;100581.81;6185057;23;19912;-78
2024/03/04 07:24:12;;;;;;;;;;;;;;;5.56;100.00;100584.00;6182272;23;19975;-77
2024/03/04 07:26:49;;;;;;;;;;;;;;;5.53;100.00;100579.81;6184736;23;19916;-77
2024/03/04 07:29:14;;;;;;;;;;;;;;;5.54;100.00;100586.84;6184552;23;19912;-77
2024/03/04 07:31:49;;;;;;;;;;;;;;;5.51;100.00;100592.50;6185471;23;19963;-77
2024/03/04 07:34:14;;;;;;;;;;;;;;;5.56;100.00;100592.03;6160645;23;19912;-77
2024/03/04 07:36:52;;;;;;;;;;;;;;;5.60;100.00;100596.84;6185993;23;19912;-78
2024/03/04 07:39:17;;;;;;;;;;;;;;;5.65;100.00;100599.00;6188910;23;19916;-77
2024/03/04 07:42:00;;;;;;;;;;;;;;;5.61;100.00;100593.16;6200588;23;20027;-77
2024/03/04 07:44:44;;;;;;;;;;;;;;;5.69;100.00;100594.13;6192907;23;20267;-78
2024/03/04 07:47:15;;;;;;;;;;;;;;;5.72;100.00;100588.44;6188693;23;19912;-77
2024/03/04 07:49:43;;;;;;;;;;;;;;;5.74;100.00;100587.25;6186693;23;19987;-78
2024/03/04 07:52:14;;;;;;;;;;;;;;;5.81;100.00;100592.78;6185679;23;19912;-78
2024/03/04 07:54:39;;;;;;;;;;;;;;;5.85;100.00;100593.25;6184886;23;19912;-79
2024/03/04 07:57:17;;;;;;;;;;;;;;;5.82;100.00;100599.78;6185037;23;19923;-78
2024/03/04 07:59:50;;;;;;;;;;;;;;;5.89;100.00;100595.41;6184815;23;20059;-77
2024/03/04 08:02:16;;;;;;;;;;;;;;;5.82;100.00;100599.78;6159246;23;19912;-77
2024/03/04 08:04:47;;;;;;;;;;;;;;;5.89;100.00;100606.09;6185966;23;19913;-77
2024/03/04 08:07:27;;;;;;;;;;;;;;;5.82;100.00;100602.47;6178278;23;19956;-78
2024/03/04 08:09:52;;;;;;;;;;;;;;;5.83;100.00;100617.47;6201557;23;19912;-78
2024/03/04 08:12:17;;;;;;;;;;;;;;;5.80;100.00;100608.97;6193093;23;19912;-78
2024/03/04 08:14:42;;;;;;;;;;;;;;;5.76;100.00;100611.97;6187628;23;19979;-78
2024/03/04 08:17:09;;;;;;;;;;;;;;;5.78;100.00;100619.84;6187285;23;19958;-78
2024/03/04 08:19:34;;;;;;;;;;;;;;;5.85;100.00;100628.81;6185279;23;19908;-78
2024/03/04 08:21:59;;;;;;;;;;;;;;;5.88;100.00;100625.81;6185513;23;19923;-77
2024/03/04 08:24:24;;;;;;;;;;;;;;;5.91;100.00;100620.13;6185312;23;19927;-78
2024/03/04 08:26:49;;;;;;;;;;;;;;;5.91;100.00;100624.66;6185944;23;19916;-77
2024/03/04 08:29:15;;;;;;;;;;;;;;;5.98;100.00;100624.78;6186071;23;19975;-77
2024/03/04 08:31:40;;;;;;;;;;;;;;;5.97;100.00;100623.13;6192647;23;19912;-78
2024/03/04 08:34:05;;;;;;;;;;;;;;;6.10;100.00;100617.22;6193584;23;19919;-78
2024/03/04 08:36:31;;;;;;;;;;;;;;;6.14;100.00;100623.91;6196314;23;19923;-78
2024/03/04 08:38:57;;;;;;;;;;;;;;;6.09;100.00;100621.75;6196222;23;19916;-78
2024/03/04 08:41:24;;;;;;;;;;;;;;;6.05;100.00;100631.13;6188005;23;19934;-78
2024/03/04 08:43:50;;;;;;;;;;;;;;;6.02;100.00;100634.97;6187447;23;20302;-79
2024/03/04 08:46:15;;;;;;;;;;;;;;;6.07;100.00;100643.31;6187201;23;19912;-79
2024/03/04 08:48:41;;;;;;;;;;;;;;;6.10;100.00;100633.25;6161142;23;19913;-79
2024/03/04 08:51:07;;;;;;;;;;;;;;;6.16;100.00;100638.78;6186997;23;19919;-76
2024/03/04 08:53:32;;;;;;;;;;;;;;;6.20;100.00;100624.03;6186231;23;20236;-78
2024/03/04 08:55:57;;;;;;;;;;;;;;;6.22;100.00;100630.06;6189348;23;19991;-77
2024/03/04 08:58:32;;;;;;;;;;;;;;;6.22;100.00;100631.91;6191194;23;20314;-78
2024/03/04 09:00:57;;;;;;;;;;;;;;;6.25;100.00;100636.06;6191222;23;19912;-78
2024/03/04 09:03:22;;;;;;;;;;;;;;;6.24;100.00;100629.03;6201801;23;20285;-78
2024/03/04 09:05:48;;;;;;;;;;;;;;;6.24;100.00;100631.72;6198977;23;19912;-77
2024/03/04 09:08:13;;;;;;;;;;;;;;;6.27;100.00;100636.72;6187883;23;19920;-78
2024/03/04 09:10:38;;;;;;;;;;;;;;;6.33;100.00;100638.72;6188758;23;19948;-78
2024/03/04 09:13:04;;;;;;;;;;;;;;;6.44;100.00;100640.97;6186564;23;19916;-78
2024/03/04 09:15:29;;;;;;;;;;;;;;;6.53;100.00;100644.44;6184550;23;20014;-77
2024/03/04 09:17:54;;;;;;;;;;;;;;;6.56;100.00;100640.56;6186767;23;19908;-78
2024/03/04 09:20:22;;;;;;;;;;;;;;;6.61;100.00;100648.91;6186139;23;19924;-77
2024/03/04 09:22:47;;;;;;;;;;;;;;;6.70;100.00;100647.03;6184238;23;19912;-77
2024/03/04 09:25:12;;;;;;;;;;;;;;;6.75;100.00;100637.44;6172545;23;19912;-78
2024/03/04 09:27:42;;;;;;;;;;;;;;;6.77;100.00;100640.78;6184102;23;19916;-78
2024/03/04 09:30:13;;;;;;;;;;;;;;;6.82;100.00;100650.94;6183510;23;20008;-78
2024/03/04 09:32:38;;;;;;;;;;;;;;;6.71;100.00;100657.53;6184835;23;19912;-77
2024/03/04 09:35:11;;;;;;;;;;;;;;;6.71;100.00;100652.19;6184547;23;19916;-77
2024/03/04 09:37:40;;;;;;;;;;;;;;;6.76;100.00;100657.84;6184408;23;19912;-78
2024/03/04 09:40:11;;;;;;;;;;;;;;;6.77;100.00;100662.19;6184410;23;19924;-78
2024/03/04 09:42:36;;;;;;;;;;;;;;;6.61;100.00;100668.50;6156870;23;19916;-77
2024/03/04 09:45:02;;;;;;;;;;;;;;;6.61;100.00;100667.63;6157966;23;19943;-78
2024/03/04 09:47:28;;;;;;;;;;;;;;;6.65;100.00;100671.63;6157926;23;19912;-78
2024/03/04 09:49:53;;;;;;;;;;;;;;;6.72;100.00;100672.59;6157227;23;19912;-78
2024/03/04 09:52:19;;;;;;;;;;;;;;;6.66;100.00;100676.78;6157961;23;19913;-78
2024/03/04 09:54:44;;;;;;;;;;;;;;;6.66;100.00;100687.50;6157878;23;20006;-78
2024/03/04 09:57:09;;;;;;;;;;;;;;;6.67;100.00;100683.81;6158785;23;19979;-78
2024/03/04 09:59:35;;;;;;;;;;;;;;;6.74;100.00;100694.66;6185848;23;19931;-77
2024/03/04 10:02:01;;;;;;;;;;;;;;;6.66;100.00;100697.38;6160321;23;19912;-77
2024/03/04 10:04:26;;;;;;;;;;;;;;;6.42;100.00;100696.47;6157850;23;19919;-78
2024/03/04 10:06:52;;;;;;;;;;;;;;;6.44;100.00;100699.00;6159998;23;19913;-78
2024/03/04 10:09:17;;;;;;;;;;;;;;;6.48;100.00;100695.78;6160068;23;20325;-77
2024/03/04 10:11:42;;;;;;;;;;;;;;;6.49;100.00;100700.13;6185501;23;19959;-77
2024/03/04 10:14:08;;;;;;;;;;;;;;;6.49;100.00;100702.81;6186887;23;19919;-77
2024/03/04 10:16:34;;;;;;;;;;;;;;;6.49;100.00;100697.47;6187088;23;19987;-77
2024/03/04 10:19:01;;;;;;;;;;;;;;;6.47;100.00;100698.63;6186164;23;19936;-77
2024/03/04 10:21:27;;;;;;;;;;;;;;;6.34;100.00;100710.72;6186607;23;19923;-78
2024/03/04 10:23:52;;;;;;;;;;;;;;;6.39;100.00;100718.19;6187359;23;19912;-77
2024/03/04 10:26:18;;;;;;;;;;;;;;;6.38;100.00;100711.19;6185512;23;20296;-77
2024/03/04 10:28:45;;;;;;;;;;;;;;;6.34;100.00;100712.56;6186096;23;20280;-77
2024/03/04 10:31:14;;;;;;;;;;;;;;;6.34;100.00;100707.22;6186399;23;19912;-78
2024/03/04 10:33:40;;;;;;;;;;;;;;;6.34;100.00;100713.38;6185623;23;19912;-78
2024/03/04 10:36:31;;;;;;;;;;;;;;;6.33;100.00;100721.59;6186776;23;19987;-77
2024/03/04 10:38:56;;;;;;;;;;;;;;;6.34;100.00;100715.22;6179856;23;19987;-78
2024/03/04 10:41:25;;;;;;;;;;;;;;;6.34;100.00;100710.72;6186153;23;20204;-78
2024/03/04 10:43:52;;;;;;;;;;;;;;;6.44;100.00;100715.03;6185385;23;19971;-78
2024/03/04 10:46:18;;;;;;;;;;;;;;;6.50;100.00;100719.66;6185299;23;19920;-78
2024/03/04 10:48:44;;;;;;;;;;;;;;;6.46;100.00;100719.19;6186293;23;19912;-77
2024/03/04 10:51:09;;;;;;;;;;;;;;;6.44;100.00;100726.56;6185726;23;20269;-78
2024/03/04 10:53:35;;;;;;;;;;;;;;;6.46;100.00;100719.19;6185167;23;19912;-77
2024/03/04 10:56:05;;;;;;;;;;;;;;;6.46;100.00;100719.19;6186375;23;19923;-79
2024/03/04 10:58:31;;;;;;;;;;;;;;;6.49;100.00;100713.50;6185418;23;19912;-76
2024/03/04 11:00:56;;;;;;;;;;;;;;;6.48;100.00;100721.69;6185704;23;19918;-77
2024/03/04 11:03:22;;;;;;;;;;;;;;;6.48;100.00;100716.34;6185944;23;19952;-77
2024/03/04 11:05:50;;;;;;;;;;;;;;;6.51;100.00;100727.53;6185956;23;19993;-78
2024/03/04 11:08:15;;;;;;;;;;;;;;;6.46;100.00;100721.00;6185137;23;19967;-77
2024/03/04 11:10:52;;;;;;;;;;;;;;;6.52;100.00;100729.22;6187031;23;20284;-77
2024/03/04 11:13:17;;;;;;;;;;;;;;;6.60;100.00;100722.13;6160398;23;19975;-77
2024/03/04 11:15:50;;;;;;;;;;;;;;;6.70;100.00;100721.94;6186699;23;19912;-78
2024/03/04 11:18:18;;;;;;;;;;;;;;;6.80;100.00;100727.88;6198094;23;19964;-76
2024/03/04 11:20:46;;;;;;;;;;;;;;;7.01;100.00;100729.97;6202827;23;19916;-78
2024/03/04 11:23:11;;;;;;;;;;;;;;;7.28;100.00;100727.78;6163472;23;20191;-78
2024/03/04 11:25:36;;;;;;;;;;;;;;;7.54;100.00;100726.59;6156455;23;19927;-77
2024/03/04 11:28:01;;;;;;;;;;;;;;;7.73;100.00;100731.44;6155910;23;19917;-78
2024/03/04 11:30:27;;;;;;;;;;;;;;;7.88;100.00;100731.47;6156828;23;20330;-77
2024/03/04 11:32:55;;;;;;;;;;;;;;;8.14;100.00;100734.72;6156057;23;20388;-77
2024/03/04 11:35:26;;;;;;;;;;;;;;;8.11;100.00;100727.88;6155171;23;20000;-79
2024/03/04 11:37:52;;;;;;;;;;;;;;;8.21;100.00;100727.63;6156689;23;19912;-78
2024/03/04 11:40:24;;;;;;;;;;;;;;;8.27;100.00;100732.25;6158757;23;19955;-78
2024/03/04 11:42:52;;;;;;;;;;;;;;;8.49;100.00;100729.66;6158663;23;19924;-76
2024/03/04 11:45:23;;;;;;;;;;;;;;;8.74;100.00;100742.78;6167053;23;19935;-77
2024/03/04 11:47:51;;;;;;;;;;;;;;;8.92;99.60;100745.91;6174711;23;19938;-77
2024/03/04 11:50:35;;;;;;;;;;;;;;;9.09;97.72;100738.44;6159571;23;19912;-77
2024/03/04 11:53:19;;;;;;;;;;;;;;;9.03;97.99;100741.06;6161959;23;19936;-77
2024/03/04 11:55:44;;;;;;;;;;;;;;;8.91;97.45;100743.41;6157455;23;19936;-77
2024/03/04 11:58:10;;;;;;;;;;;;;;;8.97;98.71;100752.56;6155846;23;20322;-78
2024/03/04 12:00:35;;;;;;;;;;;;;;;8.89;99.24;100751.66;6156880;23;19912;-77
2024/03/04 12:03:04;;;;;;;;;;;;;;;8.90;97.83;100756.00;6157181;23;20000;-77
2024/03/04 12:05:29;;;;;;;;;;;;;;;8.69;99.90;100750.56;6156925;23;19917;-78
2024/03/04 12:07:54;;;;;;;;;;;;;;;8.83;99.48;100751.56;6163652;23;19967;-77
2024/03/04 12:10:21;;;;;;;;;;;;;;;8.71;97.37;100753.91;6162417;23;19913;-78
2024/03/04 12:12:47;;;;;;;;;;;;;;;8.43;99.84;100751.88;6166446;23;19939;-78
2024/03/04 12:15:12;;;;;;;;;;;;;;;8.47;99.90;100753.16;6175257;23;19912;-78
2024/03/04 12:17:37;;;;;;;;;;;;;;;8.58;99.98;100741.97;6167447;23;20211;-78
2024/03/04 12:20:03;;;;;;;;;;;;;;;8.48;99.74;100749.47;6156515;23;20281;-77
2024/03/04 12:22:29;;;;;;;;;;;;;;;8.61;99.58;100752.34;6155837;23;19993;-78
2024/03/04 12:25:07;;;;;;;;;;;;;;;8.50;99.16;100744.75;6158453;23;19916;-78
2024/03/04 12:27:32;;;;;;;;;;;;;;;8.55;99.73;100753.06;6186012;23;19928;-78
2024/03/04 12:30:12;;;;;;;;;;;;;;;8.37;100.00;100750.75;6188089;23;19920;-77
2024/03/04 12:32:38;;;;;;;;;;;;;;;8.34;100.00;100746.56;6187208;23;19916;-77
2024/03/04 12:35:12;;;;;;;;;;;;;;;8.19;100.00;100743.91;6188911;23;19912;-77